sensor_id;sensor_type;location;lat;lon;timestamp;P1;durP1;ratioP1;P2;durP2;ratioP2
9496;SDS011;4786;51.270;4.456;2023-04-08T00:01:09;11.83;;;6.40;;
9496;SDS011;4786;51.270;4.456;2023-04-08T00:03:35;12.70;;;6.47;;
9496;SDS011;4786;51.270;4.456;2023-04-08T00:06:01;15.40;;;6.47;;
9496;SDS011;4786;51.270;4.456;2023-04-08T00:08:28;14.17;;;6.40;;
9496;SDS011;4786;51.270;4.456;2023-04-08T00:10:54;15.30;;;5.93;;
9496;SDS011;4786;51.270;4.456;2023-04-08T00:13:20;15.57;;;6.47;;
9496;SDS011;4786;51.270;4.456;2023-04-08T00:15:46;19.47;;;7.00;;
9496;SDS011;4786;51.270;4.456;2023-04-08T00:18:13;14.83;;;6.50;;
9496;SDS011;4786;51.270;4.456;2023-04-08T00:20:41;14.03;;;5.60;;
9496;SDS011;4786;51.270;4.456;2023-04-08T00:23:08;11.50;;;5.80;;
9496;SDS011;4786;51.270;4.456;2023-04-08T00:25:34;14.43;;;6.00;;
9496;SDS011;4786;51.270;4.456;2023-04-08T00:28:00;11.87;;;5.90;;
9496;SDS011;4786;51.270;4.456;2023-04-08T00:30:26;12.47;;;5.67;;
9496;SDS011;4786;51.270;4.456;2023-04-08T00:32:52;16.27;;;5.80;;
9496;SDS011;4786;51.270;4.456;2023-04-08T00:35:18;14.53;;;6.03;;
9496;SDS011;4786;51.270;4.456;2023-04-08T00:37:44;15.57;;;5.93;;
9496;SDS011;4786;51.270;4.456;2023-04-08T00:40:10;14.17;;;6.17;;
9496;SDS011;4786;51.270;4.456;2023-04-08T00:42:37;14.37;;;5.90;;
9496;SDS011;4786;51.270;4.456;2023-04-08T00:45:03;13.20;;;6.03;;
9496;SDS011;4786;51.270;4.456;2023-04-08T00:47:29;12.33;;;5.83;;
9496;SDS011;4786;51.270;4.456;2023-04-08T00:49:56;12.73;;;5.73;;
9496;SDS011;4786;51.270;4.456;2023-04-08T00:52:22;12.13;;;5.73;;
9496;SDS011;4786;51.270;4.456;2023-04-08T00:54:48;13.53;;;6.80;;
9496;SDS011;4786;51.270;4.456;2023-04-08T00:57:14;16.97;;;6.80;;
9496;SDS011;4786;51.270;4.456;2023-04-08T00:59:40;17.23;;;7.10;;
9496;SDS011;4786;51.270;4.456;2023-04-08T01:05:24;14.47;;;6.47;;
9496;SDS011;4786;51.270;4.456;2023-04-08T01:07:59;15.33;;;6.40;;
9496;SDS011;4786;51.270;4.456;2023-04-08T01:10:29;12.90;;;6.67;;
9496;SDS011;4786;51.270;4.456;2023-04-08T01:13:08;17.87;;;6.60;;
9496;SDS011;4786;51.270;4.456;2023-04-08T01:15:38;13.57;;;6.37;;
9496;SDS011;4786;51.270;4.456;2023-04-08T01:18:08;10.73;;;6.40;;
9496;SDS011;4786;51.270;4.456;2023-04-08T01:20:36;14.73;;;7.03;;
9496;SDS011;4786;51.270;4.456;2023-04-08T01:23:19;15.17;;;7.67;;
9496;SDS011;4786;51.270;4.456;2023-04-08T01:25:56;15.93;;;7.53;;
9496;SDS011;4786;51.270;4.456;2023-04-08T01:28:23;17.30;;;7.43;;
9496;SDS011;4786;51.270;4.456;2023-04-08T01:30:52;17.27;;;7.87;;
9496;SDS011;4786;51.270;4.456;2023-04-08T01:33:21;13.83;;;7.47;;
9496;SDS011;4786;51.270;4.456;2023-04-08T01:35:49;14.80;;;7.73;;
9496;SDS011;4786;51.270;4.456;2023-04-08T01:38:17;18.87;;;8.17;;
9496;SDS011;4786;51.270;4.456;2023-04-08T01:40:45;15.40;;;7.27;;
9496;SDS011;4786;51.270;4.456;2023-04-08T01:43:13;16.10;;;7.77;;
9496;SDS011;4786;51.270;4.456;2023-04-08T01:45:44;15.37;;;7.10;;
9496;SDS011;4786;51.270;4.456;2023-04-08T01:48:12;17.40;;;8.00;;
9496;SDS011;4786;51.270;4.456;2023-04-08T01:50:42;15.73;;;8.17;;
9496;SDS011;4786;51.270;4.456;2023-04-08T01:53:09;15.00;;;7.83;;
9496;SDS011;4786;51.270;4.456;2023-04-08T01:55:36;13.40;;;7.20;;
9496;SDS011;4786;51.270;4.456;2023-04-08T01:58:04;13.87;;;7.63;;
9496;SDS011;4786;51.270;4.456;2023-04-08T02:00:32;15.77;;;7.63;;
9496;SDS011;4786;51.270;4.456;2023-04-08T02:02:59;14.73;;;7.40;;
9496;SDS011;4786;51.270;4.456;2023-04-08T02:05:27;14.80;;;6.83;;
9496;SDS011;4786;51.270;4.456;2023-04-08T02:07:53;12.90;;;6.67;;
9496;SDS011;4786;51.270;4.456;2023-04-08T02:10:19;14.20;;;6.77;;
9496;SDS011;4786;51.270;4.456;2023-04-08T02:12:44;13.00;;;7.30;;
9496;SDS011;4786;51.270;4.456;2023-04-08T02:15:11;13.50;;;6.60;;
9496;SDS011;4786;51.270;4.456;2023-04-08T02:17:40;13.43;;;6.80;;
9496;SDS011;4786;51.270;4.456;2023-04-08T02:22:46;12.80;;;7.33;;
9496;SDS011;4786;51.270;4.456;2023-04-08T02:25:15;16.73;;;7.53;;
9496;SDS011;4786;51.270;4.456;2023-04-08T02:27:46;15.37;;;8.00;;
9496;SDS011;4786;51.270;4.456;2023-04-08T02:30:15;16.10;;;7.80;;
9496;SDS011;4786;51.270;4.456;2023-04-08T02:32:43;17.10;;;8.20;;
9496;SDS011;4786;51.270;4.456;2023-04-08T02:35:10;18.83;;;8.80;;
9496;SDS011;4786;51.270;4.456;2023-04-08T02:37:37;14.80;;;8.53;;
9496;SDS011;4786;51.270;4.456;2023-04-08T02:40:03;19.57;;;8.90;;
9496;SDS011;4786;51.270;4.456;2023-04-08T02:42:45;15.93;;;8.37;;
9496;SDS011;4786;51.270;4.456;2023-04-08T02:45:11;18.47;;;8.57;;
9496;SDS011;4786;51.270;4.456;2023-04-08T02:47:38;16.93;;;9.13;;
9496;SDS011;4786;51.270;4.456;2023-04-08T02:50:03;12.13;;;7.83;;
9496;SDS011;4786;51.270;4.456;2023-04-08T02:52:30;15.10;;;7.87;;
9496;SDS011;4786;51.270;4.456;2023-04-08T02:54:55;12.77;;;8.23;;
9496;SDS011;4786;51.270;4.456;2023-04-08T02:57:21;14.40;;;8.40;;
9496;SDS011;4786;51.270;4.456;2023-04-08T02:59:47;17.77;;;9.20;;
9496;SDS011;4786;51.270;4.456;2023-04-08T03:02:13;17.50;;;9.70;;
9496;SDS011;4786;51.270;4.456;2023-04-08T03:04:39;18.83;;;9.77;;
9496;SDS011;4786;51.270;4.456;2023-04-08T03:07:05;17.50;;;9.57;;
9496;SDS011;4786;51.270;4.456;2023-04-08T03:09:31;17.50;;;9.73;;
9496;SDS011;4786;51.270;4.456;2023-04-08T03:11:56;14.50;;;9.33;;
9496;SDS011;4786;51.270;4.456;2023-04-08T03:14:22;20.77;;;11.97;;
9496;SDS011;4786;51.270;4.456;2023-04-08T03:16:48;15.43;;;10.20;;
9496;SDS011;4786;51.270;4.456;2023-04-08T03:19:13;19.90;;;10.43;;
9496;SDS011;4786;51.270;4.456;2023-04-08T03:21:40;17.80;;;12.27;;
9496;SDS011;4786;51.270;4.456;2023-04-08T03:24:05;16.73;;;11.03;;
9496;SDS011;4786;51.270;4.456;2023-04-08T03:26:31;17.97;;;10.60;;
9496;SDS011;4786;51.270;4.456;2023-04-08T03:28:57;16.53;;;10.20;;
9496;SDS011;4786;51.270;4.456;2023-04-08T03:31:23;17.17;;;11.33;;
9496;SDS011;4786;51.270;4.456;2023-04-08T03:33:49;18.80;;;11.43;;
9496;SDS011;4786;51.270;4.456;2023-04-08T03:36:15;18.27;;;11.73;;
9496;SDS011;4786;51.270;4.456;2023-04-08T03:38:42;19.10;;;11.13;;
9496;SDS011;4786;51.270;4.456;2023-04-08T03:41:08;20.80;;;11.33;;
9496;SDS011;4786;51.270;4.456;2023-04-08T03:43:34;17.53;;;12.33;;
9496;SDS011;4786;51.270;4.456;2023-04-08T03:46:00;19.37;;;11.67;;
9496;SDS011;4786;51.270;4.456;2023-04-08T03:48:26;20.67;;;12.40;;
9496;SDS011;4786;51.270;4.456;2023-04-08T03:50:52;19.87;;;13.13;;
9496;SDS011;4786;51.270;4.456;2023-04-08T03:53:18;18.87;;;12.90;;
9496;SDS011;4786;51.270;4.456;2023-04-08T03:55:44;16.93;;;11.70;;
9496;SDS011;4786;51.270;4.456;2023-04-08T03:58:10;17.23;;;11.90;;
9496;SDS011;4786;51.270;4.456;2023-04-08T04:00:36;21.00;;;13.43;;
9496;SDS011;4786;51.270;4.456;2023-04-08T04:03:02;21.17;;;13.57;;
9496;SDS011;4786;51.270;4.456;2023-04-08T04:05:28;18.67;;;12.10;;
9496;SDS011;4786;51.270;4.456;2023-04-08T04:07:54;16.23;;;12.33;;
9496;SDS011;4786;51.270;4.456;2023-04-08T04:10:22;15.37;;;12.20;;
9496;SDS011;4786;51.270;4.456;2023-04-08T04:12:48;14.73;;;11.50;;
9496;SDS011;4786;51.270;4.456;2023-04-08T04:15:14;21.60;;;12.67;;
9496;SDS011;4786;51.270;4.456;2023-04-08T04:17:40;19.40;;;13.00;;
9496;SDS011;4786;51.270;4.456;2023-04-08T04:20:06;21.77;;;13.07;;
9496;SDS011;4786;51.270;4.456;2023-04-08T04:22:33;22.23;;;13.40;;
9496;SDS011;4786;51.270;4.456;2023-04-08T04:24:59;17.80;;;12.57;;
9496;SDS011;4786;51.270;4.456;2023-04-08T04:27:25;18.67;;;13.50;;
9496;SDS011;4786;51.270;4.456;2023-04-08T04:29:51;22.67;;;13.40;;
9496;SDS011;4786;51.270;4.456;2023-04-08T04:32:17;19.00;;;13.33;;
9496;SDS011;4786;51.270;4.456;2023-04-08T04:34:43;19.50;;;13.73;;
9496;SDS011;4786;51.270;4.456;2023-04-08T04:37:09;21.40;;;13.67;;
9496;SDS011;4786;51.270;4.456;2023-04-08T04:39:35;18.50;;;13.20;;
9496;SDS011;4786;51.270;4.456;2023-04-08T04:42:01;21.33;;;13.53;;
9496;SDS011;4786;51.270;4.456;2023-04-08T04:44:27;17.70;;;13.03;;
9496;SDS011;4786;51.270;4.456;2023-04-08T04:46:53;20.00;;;12.97;;
9496;SDS011;4786;51.270;4.456;2023-04-08T04:49:19;20.33;;;13.07;;
9496;SDS011;4786;51.270;4.456;2023-04-08T04:51:44;16.77;;;11.67;;
9496;SDS011;4786;51.270;4.456;2023-04-08T04:54:10;17.63;;;11.90;;
9496;SDS011;4786;51.270;4.456;2023-04-08T04:56:36;18.47;;;13.03;;
9496;SDS011;4786;51.270;4.456;2023-04-08T04:59:02;18.23;;;12.93;;
9496;SDS011;4786;51.270;4.456;2023-04-08T05:01:29;20.27;;;12.87;;
9496;SDS011;4786;51.270;4.456;2023-04-08T05:03:55;15.73;;;11.67;;
9496;SDS011;4786;51.270;4.456;2023-04-08T05:06:22;18.57;;;12.03;;
9496;SDS011;4786;51.270;4.456;2023-04-08T05:08:49;17.50;;;12.00;;
9496;SDS011;4786;51.270;4.456;2023-04-08T05:11:15;18.53;;;12.70;;
9496;SDS011;4786;51.270;4.456;2023-04-08T05:13:42;20.00;;;13.23;;
9496;SDS011;4786;51.270;4.456;2023-04-08T05:16:09;16.87;;;12.53;;
9496;SDS011;4786;51.270;4.456;2023-04-08T05:18:35;15.67;;;11.90;;
9496;SDS011;4786;51.270;4.456;2023-04-08T05:21:01;15.97;;;10.97;;
9496;SDS011;4786;51.270;4.456;2023-04-08T05:23:27;15.27;;;11.57;;
9496;SDS011;4786;51.270;4.456;2023-04-08T05:25:53;19.17;;;12.53;;
9496;SDS011;4786;51.270;4.456;2023-04-08T05:28:19;17.57;;;12.50;;
9496;SDS011;4786;51.270;4.456;2023-04-08T05:30:48;18.57;;;12.77;;
9496;SDS011;4786;51.270;4.456;2023-04-08T05:33:15;18.17;;;11.97;;
9496;SDS011;4786;51.270;4.456;2023-04-08T05:35:41;21.10;;;13.87;;
9496;SDS011;4786;51.270;4.456;2023-04-08T05:38:07;20.93;;;13.20;;
9496;SDS011;4786;51.270;4.456;2023-04-08T05:40:33;21.43;;;13.27;;
9496;SDS011;4786;51.270;4.456;2023-04-08T05:42:59;17.70;;;13.00;;
9496;SDS011;4786;51.270;4.456;2023-04-08T05:45:26;16.87;;;12.83;;
9496;SDS011;4786;51.270;4.456;2023-04-08T05:47:53;19.00;;;14.00;;
9496;SDS011;4786;51.270;4.456;2023-04-08T05:50:18;17.70;;;12.87;;
9496;SDS011;4786;51.270;4.456;2023-04-08T05:52:45;20.97;;;13.40;;
9496;SDS011;4786;51.270;4.456;2023-04-08T05:55:14;20.63;;;13.93;;
9496;SDS011;4786;51.270;4.456;2023-04-08T05:57:39;19.53;;;13.37;;
9496;SDS011;4786;51.270;4.456;2023-04-08T06:00:06;18.53;;;13.97;;
9496;SDS011;4786;51.270;4.456;2023-04-08T06:02:34;18.40;;;13.63;;
9496;SDS011;4786;51.270;4.456;2023-04-08T06:05:00;18.07;;;13.23;;
9496;SDS011;4786;51.270;4.456;2023-04-08T06:07:27;18.10;;;12.50;;
9496;SDS011;4786;51.270;4.456;2023-04-08T06:09:53;15.80;;;13.07;;
9496;SDS011;4786;51.270;4.456;2023-04-08T06:12:19;18.73;;;13.70;;
9496;SDS011;4786;51.270;4.456;2023-04-08T06:14:45;22.33;;;13.37;;
9496;SDS011;4786;51.270;4.456;2023-04-08T06:17:11;18.37;;;13.67;;
9496;SDS011;4786;51.270;4.456;2023-04-08T06:19:37;15.47;;;12.73;;
9496;SDS011;4786;51.270;4.456;2023-04-08T06:22:02;17.93;;;13.23;;
9496;SDS011;4786;51.270;4.456;2023-04-08T06:24:28;17.70;;;13.53;;
9496;SDS011;4786;51.270;4.456;2023-04-08T06:26:54;22.03;;;14.17;;
9496;SDS011;4786;51.270;4.456;2023-04-08T06:29:21;17.97;;;14.93;;
9496;SDS011;4786;51.270;4.456;2023-04-08T06:31:47;25.63;;;16.07;;
9496;SDS011;4786;51.270;4.456;2023-04-08T06:34:14;20.10;;;14.93;;
9496;SDS011;4786;51.270;4.456;2023-04-08T06:36:40;22.67;;;16.03;;
9496;SDS011;4786;51.270;4.456;2023-04-08T06:39:06;26.00;;;17.23;;
9496;SDS011;4786;51.270;4.456;2023-04-08T06:41:32;23.43;;;18.77;;
9496;SDS011;4786;51.270;4.456;2023-04-08T06:43:58;26.63;;;20.63;;
9496;SDS011;4786;51.270;4.456;2023-04-08T06:46:24;25.30;;;18.47;;
9496;SDS011;4786;51.270;4.456;2023-04-08T06:48:50;27.30;;;20.30;;
9496;SDS011;4786;51.270;4.456;2023-04-08T06:51:17;25.87;;;19.10;;
9496;SDS011;4786;51.270;4.456;2023-04-08T06:53:42;25.70;;;18.57;;
9496;SDS011;4786;51.270;4.456;2023-04-08T06:56:08;26.27;;;18.80;;
9496;SDS011;4786;51.270;4.456;2023-04-08T06:58:34;27.13;;;19.60;;
9496;SDS011;4786;51.270;4.456;2023-04-08T07:00:59;27.57;;;19.87;;
9496;SDS011;4786;51.270;4.456;2023-04-08T07:03:27;24.03;;;19.33;;
9496;SDS011;4786;51.270;4.456;2023-04-08T07:05:53;25.17;;;19.83;;
9496;SDS011;4786;51.270;4.456;2023-04-08T07:08:19;22.93;;;19.13;;
9496;SDS011;4786;51.270;4.456;2023-04-08T07:10:45;25.03;;;19.10;;
9496;SDS011;4786;51.270;4.456;2023-04-08T07:13:12;27.77;;;19.13;;
9496;SDS011;4786;51.270;4.456;2023-04-08T07:15:37;26.07;;;19.03;;
9496;SDS011;4786;51.270;4.456;2023-04-08T07:18:03;23.70;;;18.97;;
9496;SDS011;4786;51.270;4.456;2023-04-08T07:20:29;26.47;;;20.60;;
9496;SDS011;4786;51.270;4.456;2023-04-08T07:22:56;27.07;;;20.00;;
9496;SDS011;4786;51.270;4.456;2023-04-08T07:25:22;26.47;;;19.97;;
9496;SDS011;4786;51.270;4.456;2023-04-08T07:27:48;29.37;;;19.33;;
9496;SDS011;4786;51.270;4.456;2023-04-08T07:30:14;27.37;;;20.23;;
9496;SDS011;4786;51.270;4.456;2023-04-08T07:32:39;26.27;;;19.73;;
9496;SDS011;4786;51.270;4.456;2023-04-08T07:35:05;23.70;;;18.50;;
9496;SDS011;4786;51.270;4.456;2023-04-08T07:37:31;26.77;;;20.07;;
9496;SDS011;4786;51.270;4.456;2023-04-08T07:39:57;26.53;;;19.00;;
9496;SDS011;4786;51.270;4.456;2023-04-08T07:42:23;28.00;;;19.53;;
9496;SDS011;4786;51.270;4.456;2023-04-08T07:44:49;28.07;;;18.83;;
9496;SDS011;4786;51.270;4.456;2023-04-08T07:47:16;19.67;;;17.40;;
9496;SDS011;4786;51.270;4.456;2023-04-08T07:49:44;20.30;;;16.57;;
9496;SDS011;4786;51.270;4.456;2023-04-08T07:52:10;22.07;;;17.83;;
9496;SDS011;4786;51.270;4.456;2023-04-08T07:54:36;20.67;;;17.87;;
9496;SDS011;4786;51.270;4.456;2023-04-08T07:57:02;22.20;;;19.10;;
9496;SDS011;4786;51.270;4.456;2023-04-08T07:59:28;24.27;;;19.97;;
9496;SDS011;4786;51.270;4.456;2023-04-08T08:01:54;22.47;;;19.60;;
9496;SDS011;4786;51.270;4.456;2023-04-08T08:04:20;22.33;;;19.73;;
9496;SDS011;4786;51.270;4.456;2023-04-08T08:06:46;24.17;;;20.37;;
9496;SDS011;4786;51.270;4.456;2023-04-08T08:09:12;27.40;;;21.00;;
9496;SDS011;4786;51.270;4.456;2023-04-08T08:11:38;24.13;;;19.73;;
9496;SDS011;4786;51.270;4.456;2023-04-08T08:14:04;26.40;;;20.40;;
9496;SDS011;4786;51.270;4.456;2023-04-08T08:16:30;24.10;;;21.50;;
9496;SDS011;4786;51.270;4.456;2023-04-08T08:18:57;24.20;;;20.90;;
9496;SDS011;4786;51.270;4.456;2023-04-08T08:21:23;25.43;;;20.53;;
9496;SDS011;4786;51.270;4.456;2023-04-08T08:23:51;25.53;;;21.43;;
9496;SDS011;4786;51.270;4.456;2023-04-08T08:26:17;28.53;;;21.67;;
9496;SDS011;4786;51.270;4.456;2023-04-08T08:28:43;25.87;;;22.13;;
9496;SDS011;4786;51.270;4.456;2023-04-08T08:31:08;27.30;;;22.80;;
9496;SDS011;4786;51.270;4.456;2023-04-08T08:33:35;25.07;;;21.87;;
9496;SDS011;4786;51.270;4.456;2023-04-08T08:36:01;23.00;;;19.70;;
9496;SDS011;4786;51.270;4.456;2023-04-08T08:38:29;26.10;;;20.97;;
9496;SDS011;4786;51.270;4.456;2023-04-08T08:40:58;25.83;;;20.07;;
9496;SDS011;4786;51.270;4.456;2023-04-08T08:43:25;21.37;;;17.67;;
9496;SDS011;4786;51.270;4.456;2023-04-08T08:45:52;19.47;;;17.17;;
9496;SDS011;4786;51.270;4.456;2023-04-08T08:48:19;19.87;;;17.23;;
9496;SDS011;4786;51.270;4.456;2023-04-08T08:50:45;22.43;;;19.87;;
9496;SDS011;4786;51.270;4.456;2023-04-08T08:53:11;21.50;;;19.17;;
9496;SDS011;4786;51.270;4.456;2023-04-08T08:55:37;22.17;;;19.13;;
9496;SDS011;4786;51.270;4.456;2023-04-08T08:58:03;23.87;;;19.63;;
9496;SDS011;4786;51.270;4.456;2023-04-08T09:03:22;22.33;;;19.80;;
9496;SDS011;4786;51.270;4.456;2023-04-08T09:05:51;25.10;;;21.13;;
9496;SDS011;4786;51.270;4.456;2023-04-08T09:11:17;32.07;;;25.43;;
9496;SDS011;4786;51.270;4.456;2023-04-08T09:13:44;31.47;;;25.30;;
9496;SDS011;4786;51.270;4.456;2023-04-08T09:16:11;28.63;;;24.67;;
9496;SDS011;4786;51.270;4.456;2023-04-08T09:18:39;34.83;;;27.70;;
9496;SDS011;4786;51.270;4.456;2023-04-08T09:21:08;29.70;;;25.23;;
9496;SDS011;4786;51.270;4.456;2023-04-08T09:23:38;34.07;;;27.93;;
9496;SDS011;4786;51.270;4.456;2023-04-08T09:28:35;29.47;;;25.90;;
9496;SDS011;4786;51.270;4.456;2023-04-08T09:31:08;29.83;;;26.60;;
9496;SDS011;4786;51.270;4.456;2023-04-08T09:33:56;26.50;;;23.60;;
9496;SDS011;4786;51.270;4.456;2023-04-08T09:36:23;25.33;;;20.87;;
9496;SDS011;4786;51.270;4.456;2023-04-08T09:38:51;24.33;;;21.77;;
9496;SDS011;4786;51.270;4.456;2023-04-08T09:41:17;23.80;;;21.30;;
9496;SDS011;4786;51.270;4.456;2023-04-08T09:43:48;24.40;;;21.83;;
9496;SDS011;4786;51.270;4.456;2023-04-08T09:46:26;25.17;;;21.10;;
9496;SDS011;4786;51.270;4.456;2023-04-08T09:49:00;24.60;;;20.50;;
9496;SDS011;4786;51.270;4.456;2023-04-08T09:51:49;22.73;;;20.27;;
9496;SDS011;4786;51.270;4.456;2023-04-08T09:54:25;19.07;;;17.13;;
9496;SDS011;4786;51.270;4.456;2023-04-08T09:57:20;19.47;;;17.47;;
9496;SDS011;4786;51.270;4.456;2023-04-08T09:59:55;19.03;;;17.13;;
9496;SDS011;4786;51.270;4.456;2023-04-08T10:05:12;18.00;;;16.07;;
9496;SDS011;4786;51.270;4.456;2023-04-08T10:07:40;15.23;;;13.73;;
9496;SDS011;4786;51.270;4.456;2023-04-08T10:10:06;15.33;;;13.73;;
9496;SDS011;4786;51.270;4.456;2023-04-08T10:12:35;14.50;;;13.20;;
9496;SDS011;4786;51.270;4.456;2023-04-08T10:17:46;14.13;;;12.80;;
9496;SDS011;4786;51.270;4.456;2023-04-08T10:25:27;13.60;;;12.30;;
9496;SDS011;4786;51.270;4.456;2023-04-08T10:27:55;13.30;;;12.00;;
9496;SDS011;4786;51.270;4.456;2023-04-08T10:32:53;11.47;;;10.47;;
9496;SDS011;4786;51.270;4.456;2023-04-08T10:35:29;11.37;;;10.37;;
9496;SDS011;4786;51.270;4.456;2023-04-08T10:37:56;12.63;;;11.33;;
9496;SDS011;4786;51.270;4.456;2023-04-08T10:40:23;10.57;;;9.50;;
9496;SDS011;4786;51.270;4.456;2023-04-08T10:45:22;11.10;;;10.07;;
9496;SDS011;4786;51.270;4.456;2023-04-08T10:47:48;11.20;;;10.10;;
9496;SDS011;4786;51.270;4.456;2023-04-08T10:50:15;10.50;;;9.50;;
9496;SDS011;4786;51.270;4.456;2023-04-08T10:52:46;10.53;;;9.60;;
9496;SDS011;4786;51.270;4.456;2023-04-08T10:55:12;11.27;;;10.07;;
9496;SDS011;4786;51.270;4.456;2023-04-08T10:57:38;11.03;;;10.03;;
9496;SDS011;4786;51.270;4.456;2023-04-08T11:00:08;13.40;;;12.00;;
9496;SDS011;4786;51.270;4.456;2023-04-08T11:02:38;15.23;;;13.63;;
9496;SDS011;4786;51.270;4.456;2023-04-08T11:05:04;13.33;;;12.03;;
9496;SDS011;4786;51.270;4.456;2023-04-08T11:07:31;15.20;;;13.03;;
9496;SDS011;4786;51.270;4.456;2023-04-08T11:10:01;14.30;;;12.87;;
9496;SDS011;4786;51.270;4.456;2023-04-08T11:12:27;13.70;;;12.40;;
9496;SDS011;4786;51.270;4.456;2023-04-08T11:14:53;13.23;;;11.93;;
9496;SDS011;4786;51.270;4.456;2023-04-08T11:17:20;16.13;;;14.53;;
9496;SDS011;4786;51.270;4.456;2023-04-08T11:19:46;15.87;;;13.23;;
9496;SDS011;4786;51.270;4.456;2023-04-08T11:22:12;14.63;;;13.13;;
9496;SDS011;4786;51.270;4.456;2023-04-08T11:24:39;16.10;;;14.23;;
9496;SDS011;4786;51.270;4.456;2023-04-08T11:27:05;16.10;;;14.43;;
9496;SDS011;4786;51.270;4.456;2023-04-08T11:29:32;15.83;;;14.23;;
9496;SDS011;4786;51.270;4.456;2023-04-08T11:31:58;17.47;;;15.67;;
9496;SDS011;4786;51.270;4.456;2023-04-08T11:34:25;16.13;;;14.43;;
9496;SDS011;4786;51.270;4.456;2023-04-08T11:36:51;15.77;;;14.20;;
9496;SDS011;4786;51.270;4.456;2023-04-08T11:39:17;15.60;;;14.00;;
9496;SDS011;4786;51.270;4.456;2023-04-08T11:41:47;15.10;;;13.70;;
9496;SDS011;4786;51.270;4.456;2023-04-08T11:44:13;14.60;;;13.07;;
9496;SDS011;4786;51.270;4.456;2023-04-08T11:46:38;16.07;;;14.37;;
9496;SDS011;4786;51.270;4.456;2023-04-08T11:49:07;18.20;;;16.40;;
9496;SDS011;4786;51.270;4.456;2023-04-08T11:51:34;20.50;;;18.50;;
9496;SDS011;4786;51.270;4.456;2023-04-08T11:54:28;18.17;;;16.40;;
9496;SDS011;4786;51.270;4.456;2023-04-08T11:56:56;18.83;;;16.93;;
9496;SDS011;4786;51.270;4.456;2023-04-08T11:59:22;17.33;;;15.63;;
9496;SDS011;4786;51.270;4.456;2023-04-08T12:01:50;17.30;;;15.60;;
9496;SDS011;4786;51.270;4.456;2023-04-08T12:04:16;16.63;;;14.93;;
9496;SDS011;4786;51.270;4.456;2023-04-08T12:06:42;16.33;;;14.73;;
9496;SDS011;4786;51.270;4.456;2023-04-08T12:09:10;16.90;;;15.10;;
9496;SDS011;4786;51.270;4.456;2023-04-08T12:11:39;16.53;;;14.77;;
9496;SDS011;4786;51.270;4.456;2023-04-08T12:14:06;16.40;;;14.80;;
9496;SDS011;4786;51.270;4.456;2023-04-08T12:16:31;18.80;;;14.77;;
9496;SDS011;4786;51.270;4.456;2023-04-08T12:18:57;14.83;;;13.43;;
9496;SDS011;4786;51.270;4.456;2023-04-08T12:21:23;16.20;;;14.63;;
9496;SDS011;4786;51.270;4.456;2023-04-08T12:23:48;15.63;;;14.03;;
9496;SDS011;4786;51.270;4.456;2023-04-08T12:26:14;16.13;;;14.63;;
9496;SDS011;4786;51.270;4.456;2023-04-08T12:28:40;16.27;;;13.73;;
9496;SDS011;4786;51.270;4.456;2023-04-08T12:31:06;15.27;;;13.77;;
9496;SDS011;4786;51.270;4.456;2023-04-08T12:33:32;15.57;;;14.00;;
9496;SDS011;4786;51.270;4.456;2023-04-08T12:35:58;15.77;;;14.27;;
9496;SDS011;4786;51.270;4.456;2023-04-08T12:38:24;15.10;;;13.60;;
9496;SDS011;4786;51.270;4.456;2023-04-08T12:40:51;14.73;;;13.37;;
9496;SDS011;4786;51.270;4.456;2023-04-08T12:43:17;15.87;;;14.27;;
9496;SDS011;4786;51.270;4.456;2023-04-08T12:45:43;15.87;;;14.37;;
9496;SDS011;4786;51.270;4.456;2023-04-08T12:48:09;16.10;;;14.53;;
9496;SDS011;4786;51.270;4.456;2023-04-08T12:50:36;16.63;;;15.03;;
9496;SDS011;4786;51.270;4.456;2023-04-08T12:53:02;16.17;;;14.20;;
9496;SDS011;4786;51.270;4.456;2023-04-08T12:55:28;17.60;;;15.90;;
9496;SDS011;4786;51.270;4.456;2023-04-08T12:57:54;15.77;;;14.23;;
9496;SDS011;4786;51.270;4.456;2023-04-08T13:00:20;15.27;;;13.77;;
9496;SDS011;4786;51.270;4.456;2023-04-08T13:02:46;15.60;;;13.50;;
9496;SDS011;4786;51.270;4.456;2023-04-08T13:05:12;15.40;;;14.00;;
9496;SDS011;4786;51.270;4.456;2023-04-08T13:07:37;14.60;;;13.10;;
9496;SDS011;4786;51.270;4.456;2023-04-08T13:10:03;15.67;;;14.17;;
9496;SDS011;4786;51.270;4.456;2023-04-08T13:12:31;15.03;;;13.63;;
9496;SDS011;4786;51.270;4.456;2023-04-08T13:14:56;15.40;;;13.57;;
9496;SDS011;4786;51.270;4.456;2023-04-08T13:17:23;14.53;;;13.00;;
9496;SDS011;4786;51.270;4.456;2023-04-08T13:19:50;13.57;;;12.30;;
9496;SDS011;4786;51.270;4.456;2023-04-08T13:22:16;13.80;;;12.50;;
9496;SDS011;4786;51.270;4.456;2023-04-08T13:24:42;15.00;;;13.60;;
9496;SDS011;4786;51.270;4.456;2023-04-08T13:27:07;17.17;;;15.57;;
9496;SDS011;4786;51.270;4.456;2023-04-08T13:29:33;14.90;;;13.50;;
9496;SDS011;4786;51.270;4.456;2023-04-08T13:32:00;14.63;;;13.20;;
9496;SDS011;4786;51.270;4.456;2023-04-08T13:34:26;14.53;;;13.13;;
9496;SDS011;4786;51.270;4.456;2023-04-08T13:36:52;16.20;;;14.70;;
9496;SDS011;4786;51.270;4.456;2023-04-08T13:39:18;15.97;;;14.43;;
9496;SDS011;4786;51.270;4.456;2023-04-08T13:41:44;14.40;;;13.10;;
9496;SDS011;4786;51.270;4.456;2023-04-08T13:44:10;15.97;;;14.37;;
9496;SDS011;4786;51.270;4.456;2023-04-08T13:46:36;15.00;;;13.67;;
9496;SDS011;4786;51.270;4.456;2023-04-08T13:49:03;15.63;;;14.27;;
9496;SDS011;4786;51.270;4.456;2023-04-08T13:51:29;15.10;;;13.80;;
9496;SDS011;4786;51.270;4.456;2023-04-08T13:53:55;12.27;;;11.17;;
9496;SDS011;4786;51.270;4.456;2023-04-08T13:56:21;14.47;;;13.17;;
9496;SDS011;4786;51.270;4.456;2023-04-08T13:58:46;12.90;;;11.80;;
9496;SDS011;4786;51.270;4.456;2023-04-08T14:01:12;14.17;;;12.70;;
9496;SDS011;4786;51.270;4.456;2023-04-08T14:03:38;14.40;;;13.00;;
9496;SDS011;4786;51.270;4.456;2023-04-08T14:06:03;14.77;;;13.43;;
9496;SDS011;4786;51.270;4.456;2023-04-08T14:08:29;15.20;;;13.80;;
9496;SDS011;4786;51.270;4.456;2023-04-08T14:10:55;14.30;;;13.10;;
9496;SDS011;4786;51.270;4.456;2023-04-08T14:13:21;14.43;;;13.03;;
9496;SDS011;4786;51.270;4.456;2023-04-08T14:15:48;13.47;;;12.27;;
9496;SDS011;4786;51.270;4.456;2023-04-08T14:18:14;14.50;;;12.23;;
9496;SDS011;4786;51.270;4.456;2023-04-08T14:20:43;14.33;;;12.83;;
9496;SDS011;4786;51.270;4.456;2023-04-08T14:23:09;12.53;;;11.43;;
9496;SDS011;4786;51.270;4.456;2023-04-08T14:25:35;13.87;;;12.67;;
9496;SDS011;4786;51.270;4.456;2023-04-08T14:28:01;13.60;;;12.40;;
9496;SDS011;4786;51.270;4.456;2023-04-08T14:30:28;13.30;;;12.00;;
9496;SDS011;4786;51.270;4.456;2023-04-08T14:33:00;14.67;;;13.27;;
9496;SDS011;4786;51.270;4.456;2023-04-08T14:35:25;13.17;;;11.97;;
9496;SDS011;4786;51.270;4.456;2023-04-08T14:37:51;12.40;;;11.30;;
9496;SDS011;4786;51.270;4.456;2023-04-08T14:40:17;14.13;;;12.83;;
9496;SDS011;4786;51.270;4.456;2023-04-08T14:42:44;13.97;;;12.67;;
9496;SDS011;4786;51.270;4.456;2023-04-08T14:45:10;12.37;;;11.37;;
9496;SDS011;4786;51.270;4.456;2023-04-08T14:47:36;12.83;;;11.73;;
9496;SDS011;4786;51.270;4.456;2023-04-08T14:50:01;13.73;;;12.53;;
9496;SDS011;4786;51.270;4.456;2023-04-08T14:52:27;13.57;;;12.33;;
9496;SDS011;4786;51.270;4.456;2023-04-08T14:54:53;14.10;;;12.80;;
9496;SDS011;4786;51.270;4.456;2023-04-08T14:57:19;14.20;;;12.70;;
9496;SDS011;4786;51.270;4.456;2023-04-08T14:59:45;11.60;;;10.40;;
9496;SDS011;4786;51.270;4.456;2023-04-08T15:02:11;12.10;;;10.90;;
9496;SDS011;4786;51.270;4.456;2023-04-08T15:04:37;13.13;;;11.83;;
9496;SDS011;4786;51.270;4.456;2023-04-08T15:07:03;13.50;;;12.13;;
9496;SDS011;4786;51.270;4.456;2023-04-08T15:09:29;14.03;;;12.83;;
9496;SDS011;4786;51.270;4.456;2023-04-08T15:11:55;12.47;;;11.37;;
9496;SDS011;4786;51.270;4.456;2023-04-08T15:14:21;12.23;;;11.03;;
9496;SDS011;4786;51.270;4.456;2023-04-08T15:16:48;11.77;;;10.77;;
9496;SDS011;4786;51.270;4.456;2023-04-08T15:19:14;11.63;;;10.63;;